createdAt,value
2023-03-15T00:00:56.425Z,85.18
2023-03-15T00:02:00.876Z,85.69
2023-03-15T00:03:04.252Z,85.52
2023-03-15T00:04:07.878Z,85.33
2023-03-15T00:05:15.351Z,85.36
2023-03-15T00:06:18.308Z,85.52
2023-03-15T00:07:26.058Z,85.62
2023-03-15T00:08:29.327Z,85.56
2023-03-15T00:09:32.185Z,85.51
2023-03-15T00:10:35.072Z,85.43
2023-03-15T00:11:38.082Z,85.44
2023-03-15T00:12:42.810Z,85.38
2023-03-15T00:13:46.393Z,85.43
2023-03-15T00:14:50.667Z,85.72
2023-03-15T00:15:58.084Z,85.58
2023-03-15T00:17:01.013Z,85.53
2023-03-15T00:18:04.404Z,85.62
2023-03-15T00:19:07.476Z,85.62
2023-03-15T00:20:12.280Z,85.62
2023-03-15T00:21:15.809Z,85.50
2023-03-15T00:22:18.605Z,85.59
2023-03-15T00:23:22.102Z,85.40
2023-03-15T00:24:25.308Z,85.55
2023-03-15T00:25:28.665Z,85.69
2023-03-15T00:26:31.573Z,85.88
2023-03-15T00:27:34.488Z,85.40
2023-03-15T00:28:37.436Z,85.49
2023-03-15T00:29:40.503Z,85.49
2023-03-15T00:30:44.229Z,85.67
2023-03-15T00:31:47.085Z,85.47
2023-03-15T00:32:53.917Z,85.59
2023-03-15T00:33:56.851Z,85.45
2023-03-15T00:34:59.691Z,85.29
2023-03-15T00:36:07.216Z,85.54
2023-03-15T00:37:11.552Z,84.90
2023-03-15T00:38:14.557Z,85.55
2023-03-15T00:39:18.641Z,85.44
2023-03-15T00:40:22.991Z,85.42
2023-03-15T00:41:25.932Z,85.54
2023-03-15T00:42:28.962Z,85.25
2023-03-15T00:43:31.890Z,85.24
2023-03-15T00:44:34.873Z,85.15
2023-03-15T00:45:37.878Z,85.23
2023-03-15T00:46:40.824Z,85.19
2023-03-15T00:47:43.851Z,85.23
2023-03-15T00:48:51.083Z,85.26
2023-03-15T00:49:54.539Z,85.09
2023-03-15T00:51:10.992Z,85.26
2023-03-15T00:52:13.914Z,84.85
2023-03-15T00:53:16.829Z,85.12
2023-03-15T00:54:19.650Z,85.10
2023-03-15T00:55:23.417Z,84.81
2023-03-15T00:56:28.154Z,85.19
2023-03-15T00:57:34.463Z,85.26
2023-03-15T00:58:37.803Z,85.05
2023-03-15T00:59:40.679Z,84.89
2023-03-15T01:00:43.608Z,85.05
2023-03-15T01:01:46.510Z,84.80
2023-03-15T01:02:49.452Z,84.98
2023-03-15T01:03:52.808Z,84.85
2023-03-15T01:04:55.685Z,85.00
2023-03-15T01:05:58.524Z,84.73
2023-03-15T01:07:01.425Z,84.51
2023-03-15T01:08:04.610Z,84.58
2023-03-15T01:09:07.476Z,84.78
2023-03-15T01:10:10.971Z,84.64
2023-03-15T01:11:17.262Z,84.54
2023-03-15T01:12:20.212Z,84.48
2023-03-15T01:13:24.220Z,84.44
2023-03-15T01:14:27.172Z,84.47
2023-03-15T01:15:30.053Z,84.52
2023-03-15T01:16:35.078Z,84.11
2023-03-15T01:17:38.611Z,84.20
2023-03-15T01:18:42.383Z,84.24
2023-03-15T01:19:45.461Z,84.42
2023-03-15T01:20:48.613Z,84.26
2023-03-15T01:21:51.505Z,84.27
2023-03-15T01:22:54.377Z,84.20
2023-03-15T01:23:57.230Z,84.49
2023-03-15T01:25:00.122Z,84.17
2023-03-15T01:26:05.290Z,84.25
2023-03-15T01:27:08.365Z,84.41
2023-03-15T01:28:11.315Z,84.07
2023-03-15T01:29:15.045Z,84.10
2023-03-15T01:30:18.111Z,84.24
2023-03-15T01:31:42.983Z,84.11
2023-03-15T01:32:46.246Z,84.08
2023-03-15T01:33:49.647Z,84.30
2023-03-15T01:34:52.495Z,84.21
2023-03-15T01:36:07.314Z,84.03
2023-03-15T01:37:14.625Z,84.04
2023-03-15T01:38:19.917Z,83.71
2023-03-15T01:39:22.773Z,84.05
2023-03-15T01:40:25.742Z,83.76
2023-03-15T01:41:28.938Z,83.95
2023-03-15T01:42:32.599Z,83.66
2023-03-15T01:43:36.287Z,84.03
2023-03-15T01:44:54.121Z,83.83
2023-03-15T01:45:59.642Z,83.93
2023-03-15T01:47:03.611Z,83.67
2023-03-15T01:48:09.345Z,83.54
2023-03-15T01:49:15.184Z,83.45
2023-03-15T01:50:20.022Z,83.66
2023-03-15T01:51:35.325Z,83.57
2023-03-15T01:52:41.483Z,83.69
2023-03-15T01:54:07.723Z,83.48
2023-03-15T01:55:15.313Z,83.54
2023-03-15T01:56:33.312Z,83.86
2023-03-15T01:57:41.703Z,83.33
2023-03-15T01:58:47.847Z,83.52
2023-03-15T02:00:02.143Z,83.47
2023-03-15T02:01:06.306Z,83.39
2023-03-15T02:02:14.684Z,83.34
2023-03-15T02:03:23.298Z,83.50
2023-03-15T02:04:47.298Z,83.31
2023-03-15T02:05:59.259Z,83.59
2023-03-15T02:07:18.758Z,83.32
2023-03-15T02:08:25.418Z,83.11
2023-03-15T02:09:41.950Z,83.40
2023-03-15T02:10:48.123Z,83.13
2023-03-15T02:11:51.726Z,82.71
2023-03-15T02:12:57.282Z,82.96
2023-03-15T02:14:02.404Z,82.99
2023-03-15T02:15:07.913Z,82.80
2023-03-15T02:16:11.642Z,82.53
2023-03-15T02:17:25.264Z,82.47
2023-03-15T02:18:28.396Z,82.73
2023-03-15T02:19:46.019Z,83.22
2023-03-15T02:21:22.858Z,82.98
2023-03-15T02:23:05.618Z,82.63
2023-03-15T02:24:26.084Z,82.56
2023-03-15T02:25:46.936Z,82.44
2023-03-15T02:26:57.238Z,82.39
2023-03-15T02:28:03.454Z,82.55
2023-03-15T02:29:06.484Z,82.45
2023-03-15T02:30:11.807Z,82.51
2023-03-15T02:31:15.552Z,82.48
2023-03-15T02:32:18.447Z,82.50
2023-03-15T02:33:42.751Z,82.67
2023-03-15T02:34:45.702Z,82.80
2023-03-15T02:35:48.744Z,82.46
2023-03-15T02:36:54.984Z,82.42
2023-03-15T02:37:59.127Z,82.48
2023-03-15T02:39:12.798Z,82.54
2023-03-15T02:40:20.275Z,82.78
2023-03-15T02:41:42.650Z,82.42
2023-03-15T02:42:48.723Z,82.60
2023-03-15T02:43:55.309Z,82.71
2023-03-15T02:44:59.086Z,82.73
2023-03-15T02:46:04.257Z,82.78
2023-03-15T02:47:21.659Z,82.90
2023-03-15T02:48:24.997Z,82.65
2023-03-15T02:49:31.421Z,82.89
2023-03-15T02:50:34.350Z,82.88
2023-03-15T02:51:37.377Z,82.70
2023-03-15T02:52:40.533Z,82.99
2023-03-15T02:53:43.401Z,82.94
2023-03-15T02:54:46.338Z,82.69
2023-03-15T02:55:49.483Z,82.98
2023-03-15T02:56:53.384Z,82.85
2023-03-15T02:57:56.453Z,82.86
2023-03-15T02:58:59.933Z,82.89
2023-03-15T03:00:13.330Z,83.02
2023-03-15T03:01:18.502Z,82.91
2023-03-15T03:02:22.046Z,82.98
2023-03-15T03:03:25.069Z,83.01
2023-03-15T03:04:28.567Z,82.79
2023-03-15T03:05:31.516Z,82.96
2023-03-15T03:06:34.482Z,83.04
2023-03-15T03:07:38.239Z,82.82
2023-03-15T03:08:47.444Z,83.13
2023-03-15T03:09:51.822Z,82.83
2023-03-15T03:10:55.386Z,82.93
2023-03-15T03:11:58.604Z,82.91
2023-03-15T03:13:02.017Z,83.21
2023-03-15T03:14:15.585Z,82.94
2023-03-15T03:15:19.492Z,82.76
2023-03-15T03:16:23.345Z,82.82
2023-03-15T03:17:26.390Z,83.05
2023-03-15T03:18:30.851Z,83.05
2023-03-15T03:19:33.845Z,83.09
2023-03-15T03:20:36.956Z,82.98
2023-03-15T03:21:43.419Z,83.10
2023-03-15T03:22:47.283Z,83.02
2023-03-15T03:23:50.162Z,83.04
2023-03-15T03:24:53.158Z,83.14
2023-03-15T03:25:57.970Z,83.05
2023-03-15T03:27:00.916Z,83.11
2023-03-15T03:28:05.831Z,83.24
2023-03-15T03:29:09.039Z,83.08
2023-03-15T03:30:14.244Z,83.05
2023-03-15T03:31:25.948Z,83.28
2023-03-15T03:32:29.568Z,83.23
2023-03-15T03:33:32.685Z,83.28
2023-03-15T03:34:36.656Z,83.19
2023-03-15T03:35:39.595Z,83.01
2023-03-15T03:36:43.890Z,82.94
2023-03-15T03:37:47.968Z,83.27
2023-03-15T03:38:54.781Z,83.10
2023-03-15T03:39:58.201Z,83.22
2023-03-15T03:41:01.806Z,83.05
2023-03-15T03:42:06.129Z,83.21
2023-03-15T03:43:09.909Z,83.04
2023-03-15T03:44:12.839Z,83.06
2023-03-15T03:45:16.078Z,83.02
2023-03-15T03:46:19.987Z,83.01
2023-03-15T03:47:25.760Z,83.05
2023-03-15T03:48:29.022Z,83.01
2023-03-15T03:49:32.129Z,83.11
2023-03-15T03:50:35.357Z,83.06
2023-03-15T03:51:38.669Z,83.10
2023-03-15T03:52:44.126Z,83.16
2023-03-15T03:53:51.497Z,83.20
2023-03-15T03:54:54.919Z,83.12
2023-03-15T03:55:57.857Z,83.05
2023-03-15T03:57:00.839Z,83.29
2023-03-15T03:58:07.370Z,83.20
2023-03-15T03:59:23.704Z,83.08
2023-03-15T04:00:32.018Z,83.22
2023-03-15T04:01:34.972Z,83.20
2023-03-15T04:02:38.181Z,83.30
2023-03-15T04:03:43.387Z,83.30
2023-03-15T04:04:50.628Z,83.25
2023-03-15T04:05:57.935Z,83.21
2023-03-15T04:07:01.126Z,83.38
2023-03-15T04:08:11.996Z,83.21
2023-03-15T04:09:16.695Z,83.31
2023-03-15T04:10:26.952Z,83.13
2023-03-15T04:11:30.217Z,83.50
2023-03-15T04:12:38.259Z,83.78
2023-03-15T04:13:41.481Z,83.85
2023-03-15T04:14:44.812Z,83.92
2023-03-15T04:15:48.876Z,84.13
2023-03-15T04:16:54.728Z,84.45
2023-03-15T04:17:58.754Z,84.39
2023-03-15T04:19:08.733Z,84.20
2023-03-15T04:20:13.141Z,84.43
2023-03-15T04:21:23.225Z,84.30
2023-03-15T04:22:29.924Z,84.57
2023-03-15T04:23:39.192Z,84.50
2023-03-15T04:24:58.420Z,84.50
2023-03-15T04:26:28.841Z,84.66
2023-03-15T04:28:03.055Z,84.45
2023-03-15T04:29:17.921Z,84.58
2023-03-15T04:30:31.893Z,84.61
2023-03-15T04:32:04.668Z,84.61
2023-03-15T04:33:32.914Z,84.64
2023-03-15T04:34:56.199Z,85.18
2023-03-15T04:36:18.964Z,84.75
2023-03-15T04:37:47.722Z,85.03
2023-03-15T04:39:13.613Z,85.37
2023-03-15T04:40:36.406Z,85.21
2023-03-15T04:42:09.352Z,85.31
2023-03-15T04:43:18.380Z,85.48
2023-03-15T04:44:49.526Z,85.48
2023-03-15T04:46:11.282Z,85.34
2023-03-15T04:47:33.122Z,85.35
2023-03-15T04:49:14.659Z,85.49
2023-03-15T04:50:40.810Z,85.38
2023-03-15T04:51:58.563Z,85.68
2023-03-15T04:53:14.632Z,85.52
2023-03-15T04:54:50.177Z,85.67
2023-03-15T04:56:09.730Z,85.57
2023-03-15T04:57:32.900Z,85.77
2023-03-15T04:58:48.531Z,85.51
2023-03-15T05:00:12.034Z,85.72
2023-03-15T05:01:30.677Z,85.86
2023-03-15T05:03:12.411Z,85.94
2023-03-15T05:04:32.407Z,85.92
2023-03-15T05:05:48.189Z,85.98
2023-03-15T05:07:15.549Z,85.85
2023-03-15T05:08:31.429Z,86.25
2023-03-15T05:09:48.122Z,86.17
2023-03-15T05:11:10.012Z,86.16
2023-03-15T05:12:34.846Z,86.11
2023-03-15T05:13:50.448Z,86.25
2023-03-15T05:14:54.360Z,86.29
2023-03-15T05:16:15.939Z,86.23
2023-03-15T05:17:37.442Z,86.26
2023-03-15T05:18:58.908Z,86.58
2023-03-15T05:20:34.694Z,86.41
2023-03-15T05:21:55.994Z,86.36
2023-03-15T05:23:15.946Z,86.51
2023-03-15T05:24:41.881Z,86.55
2023-03-15T05:26:00.920Z,86.47
2023-03-15T05:27:23.564Z,86.52
2023-03-15T05:28:45.464Z,86.60
2023-03-15T05:30:21.635Z,86.67
2023-03-15T05:31:43.355Z,86.66
2023-03-15T05:33:19.739Z,86.49
2023-03-15T05:34:55.338Z,86.67
2023-03-15T05:36:17.631Z,86.69
2023-03-15T05:37:43.747Z,86.60
2023-03-15T05:39:16.752Z,86.62
2023-03-15T05:40:38.360Z,86.45
2023-03-15T05:42:04.206Z,86.53
2023-03-15T05:43:27.548Z,86.56
2023-03-15T05:44:54.114Z,86.42
2023-03-15T05:45:59.879Z,86.36
2023-03-15T05:47:24.465Z,86.07
2023-03-15T05:48:42.871Z,86.09
2023-03-15T05:50:05.548Z,86.03
2023-03-15T05:51:30.083Z,85.91
2023-03-15T05:52:52.416Z,86.02
2023-03-15T05:54:07.920Z,85.84
2023-03-15T05:55:23.337Z,85.67
2023-03-15T05:56:46.336Z,85.66
2023-03-15T05:58:00.733Z,85.72
2023-03-15T05:59:29.157Z,85.62
2023-03-15T06:01:01.557Z,85.39
2023-03-15T06:02:21.635Z,85.35
2023-03-15T06:03:32.078Z,85.38
2023-03-15T06:04:39.658Z,85.47
2023-03-15T06:05:43.446Z,85.19
2023-03-15T06:06:51.438Z,85.00
2023-03-15T06:07:54.770Z,84.76
2023-03-15T06:08:57.816Z,84.85
2023-03-15T06:10:00.708Z,84.82
2023-03-15T06:11:03.714Z,84.46
2023-03-15T06:12:07.256Z,84.42
2023-03-15T06:13:10.307Z,84.60
2023-03-15T06:14:13.889Z,84.48
2023-03-15T06:15:28.006Z,84.45
2023-03-15T06:16:31.490Z,84.60
2023-03-15T06:17:35.154Z,84.35
2023-03-15T06:18:38.131Z,84.10
2023-03-15T06:19:41.035Z,84.20
2023-03-15T06:20:44.758Z,83.85
2023-03-15T06:21:49.988Z,83.65
2023-03-15T06:23:18.932Z,84.04
2023-03-15T06:24:22.944Z,83.80
2023-03-15T06:25:26.086Z,83.96
2023-03-15T06:26:28.957Z,83.54
2023-03-15T06:27:35.517Z,83.70
2023-03-15T06:28:38.720Z,83.73
2023-03-15T06:29:42.104Z,83.65
2023-03-15T06:30:45.806Z,83.57
2023-03-15T06:31:53.065Z,83.26
2023-03-15T06:33:04.336Z,82.93
2023-03-15T06:34:07.342Z,82.62
2023-03-15T06:35:10.444Z,82.73
2023-03-15T06:36:14.336Z,82.45
2023-03-15T06:37:28.843Z,82.64
2023-03-15T06:38:37.877Z,82.48
2023-03-15T06:39:42.155Z,82.69
2023-03-15T06:40:45.349Z,82.80
2023-03-15T06:41:48.265Z,82.55
2023-03-15T06:42:55.027Z,81.91
2023-03-15T06:43:58.082Z,82.01
2023-03-15T06:45:02.486Z,80.80
2023-03-15T06:46:06.000Z,81.08
2023-03-15T06:47:10.573Z,80.22
2023-03-15T06:48:15.191Z,80.77
2023-03-15T06:49:18.282Z,80.76
2023-03-15T06:50:21.244Z,80.67
2023-03-15T06:51:24.212Z,80.48
2023-03-15T06:52:27.311Z,81.12
2023-03-15T06:53:30.268Z,81.05
2023-03-15T06:54:33.303Z,80.59
2023-03-15T06:55:36.376Z,79.58
2023-03-15T06:56:39.855Z,79.13
2023-03-15T06:57:44.686Z,79.91
2023-03-15T06:58:47.851Z,79.51
2023-03-15T06:59:50.899Z,80.10
2023-03-15T07:00:53.758Z,80.28
2023-03-15T07:01:56.703Z,80.17
2023-03-15T07:02:59.702Z,80.21
2023-03-15T07:04:03.351Z,80.40
2023-03-15T07:05:07.044Z,80.22
2023-03-15T07:06:10.053Z,80.39
2023-03-15T07:07:13.607Z,80.67
2023-03-15T07:08:16.531Z,80.61
2023-03-15T07:09:19.966Z,80.25
2023-03-15T07:10:22.899Z,80.36
2023-03-15T07:11:25.750Z,80.68
2023-03-15T07:12:28.814Z,80.12
2023-03-15T07:13:31.722Z,80.06
2023-03-15T07:14:34.962Z,79.92
2023-03-15T07:15:37.984Z,80.06
2023-03-15T07:16:40.984Z,80.14
2023-03-15T07:17:43.857Z,80.19
2023-03-15T07:18:46.730Z,79.86
2023-03-15T07:19:56.304Z,80.05
2023-03-15T07:21:01.585Z,79.99
2023-03-15T07:22:04.657Z,80.33
2023-03-15T07:23:07.651Z,79.60
2023-03-15T07:24:10.580Z,80.31
2023-03-15T07:25:13.956Z,80.12
2023-03-15T07:26:16.936Z,80.29
2023-03-15T07:27:19.807Z,79.88
2023-03-15T07:28:25.074Z,79.63
2023-03-15T07:29:27.928Z,80.20
2023-03-15T07:30:30.880Z,80.07
2023-03-15T07:31:33.732Z,79.87
2023-03-15T07:32:36.725Z,80.26
2023-03-15T07:33:39.887Z,80.39
2023-03-15T07:34:43.030Z,80.44
2023-03-15T07:35:46.027Z,80.70
2023-03-15T07:36:48.929Z,80.41
2023-03-15T07:37:51.883Z,80.27
2023-03-15T07:38:54.986Z,79.93
2023-03-15T07:40:00.312Z,79.50
2023-03-15T07:41:05.992Z,80.01
2023-03-15T07:42:09.233Z,80.02
2023-03-15T07:43:19.525Z,79.92
2023-03-15T07:44:25.857Z,80.14
2023-03-15T07:45:28.715Z,80.18
2023-03-15T07:46:31.811Z,79.88
2023-03-15T07:47:34.841Z,79.60
2023-03-15T07:48:37.951Z,79.75
2023-03-15T07:49:41.039Z,79.56
2023-03-15T07:50:45.538Z,79.49
2023-03-15T07:51:48.553Z,79.75
2023-03-15T07:52:51.548Z,79.23
2023-03-15T07:53:54.566Z,79.64
2023-03-15T07:54:57.756Z,79.48
2023-03-15T07:56:01.369Z,79.05
2023-03-15T07:57:04.657Z,78.27
2023-03-15T07:58:08.043Z,78.56
2023-03-15T07:59:11.130Z,79.05
2023-03-15T08:00:14.608Z,78.78
2023-03-15T08:01:17.478Z,78.77
2023-03-15T08:02:20.795Z,78.47
2023-03-15T08:03:26.914Z,78.74
2023-03-15T08:04:30.040Z,78.40
2023-03-15T08:05:34.199Z,78.40
2023-03-15T08:06:37.015Z,77.46
2023-03-15T08:07:40.084Z,77.70
2023-03-15T08:08:42.918Z,77.89
2023-03-15T08:09:46.371Z,78.32
2023-03-15T08:10:49.703Z,78.12
2023-03-15T08:11:52.683Z,77.10
2023-03-15T08:12:55.603Z,77.28
2023-03-15T08:13:58.523Z,77.28
2023-03-15T08:15:01.290Z,75.73
2023-03-15T08:16:04.689Z,75.73
2023-03-15T08:17:12.450Z,75.66
2023-03-15T08:18:15.363Z,75.12
2023-03-15T08:19:18.871Z,75.72
2023-03-15T08:20:22.534Z,76.03
2023-03-15T08:21:25.394Z,76.44
2023-03-15T08:22:28.321Z,76.36
2023-03-15T08:23:31.319Z,76.64
2023-03-15T08:24:35.078Z,76.93
2023-03-15T08:25:40.978Z,76.65
2023-03-15T08:26:44.072Z,76.29
2023-03-15T08:27:48.126Z,76.19
2023-03-15T08:28:50.949Z,75.17
2023-03-15T08:29:53.857Z,75.26
2023-03-15T08:30:56.760Z,74.96
2023-03-15T08:31:59.660Z,75.07
2023-03-15T08:33:03.773Z,74.60
2023-03-15T08:34:07.477Z,74.18
2023-03-15T08:35:15.478Z,73.93
2023-03-15T08:36:19.739Z,74.16
2023-03-15T08:37:22.769Z,74.23
2023-03-15T08:38:26.316Z,74.10
2023-03-15T08:39:29.227Z,73.39
2023-03-15T08:40:32.146Z,72.56
2023-03-15T08:41:35.419Z,72.92
2023-03-15T08:42:38.742Z,73.60
2023-03-15T08:43:41.635Z,74.26
2023-03-15T08:44:44.425Z,74.06
2023-03-15T08:46:00.160Z,73.05
2023-03-15T08:47:05.365Z,73.33
2023-03-15T08:48:08.269Z,73.49
2023-03-15T08:49:11.094Z,73.57
2023-03-15T08:50:16.507Z,73.55
2023-03-15T08:51:21.348Z,71.55
2023-03-15T08:52:24.234Z,72.27
2023-03-15T08:53:27.159Z,72.54
2023-03-15T08:54:30.024Z,72.98
2023-03-15T08:55:33.031Z,71.30
2023-03-15T08:56:36.076Z,71.19
2023-03-15T08:57:39.423Z,72.05
2023-03-15T08:58:42.485Z,72.53
2023-03-15T08:59:45.720Z,72.13
2023-03-15T09:00:51.572Z,72.09
2023-03-15T09:01:54.441Z,72.41
2023-03-15T09:02:57.355Z,71.55
2023-03-15T09:04:01.368Z,71.57
2023-03-15T09:05:07.140Z,71.13
2023-03-15T09:06:10.514Z,70.96
2023-03-15T09:07:13.869Z,70.57
2023-03-15T09:08:21.019Z,71.50
2023-03-15T09:09:23.894Z,71.27
2023-03-15T09:10:26.834Z,70.26
2023-03-15T09:11:29.719Z,70.11
2023-03-15T09:12:32.569Z,70.30
2023-03-15T09:13:35.433Z,69.94
2023-03-15T09:14:38.406Z,68.06
2023-03-15T09:15:41.256Z,65.87
2023-03-15T09:16:44.307Z,66.76
2023-03-15T09:17:50.309Z,67.95
2023-03-15T09:18:53.263Z,67.96
2023-03-15T09:19:59.391Z,67.66
2023-03-15T09:21:02.329Z,66.01
2023-03-15T09:22:16.270Z,66.69
2023-03-15T09:23:26.524Z,66.53
2023-03-15T09:24:29.599Z,65.74
2023-03-15T09:25:32.755Z,67.06
2023-03-15T09:26:35.560Z,67.32
2023-03-15T09:27:38.578Z,67.70
2023-03-15T09:28:41.479Z,67.48
2023-03-15T09:29:44.280Z,66.98
2023-03-15T09:30:47.185Z,65.79
2023-03-15T09:31:50.082Z,65.43
2023-03-15T09:32:53.226Z,66.18
2023-03-15T09:33:56.817Z,66.28
2023-03-15T09:34:59.656Z,66.32
2023-03-15T09:36:02.709Z,65.39
2023-03-15T09:37:05.520Z,65.89
2023-03-15T09:38:09.064Z,64.69
2023-03-15T09:39:12.050Z,64.97
2023-03-15T09:40:18.015Z,65.79
2023-03-15T09:41:56.691Z,64.18
2023-03-15T09:43:14.340Z,65.00
2023-03-15T09:44:19.985Z,64.92
2023-03-15T09:45:41.675Z,65.74
2023-03-15T09:46:50.239Z,65.43
2023-03-15T09:48:08.122Z,65.24
2023-03-15T09:49:41.368Z,64.92
2023-03-15T09:50:54.268Z,64.15
2023-03-15T09:52:14.594Z,63.10
2023-03-15T09:53:17.776Z,63.30
2023-03-15T09:54:28.838Z,63.51
2023-03-15T09:55:32.439Z,63.53
2023-03-15T09:57:09.507Z,63.14
2023-03-15T09:58:19.407Z,63.64
2023-03-15T09:59:30.144Z,63.95
2023-03-15T10:00:41.482Z,63.12
2023-03-15T10:01:45.827Z,63.38
2023-03-15T10:03:02.310Z,62.54
2023-03-15T10:04:16.824Z,63.04
2023-03-15T10:05:32.196Z,63.42
2023-03-15T10:06:38.040Z,63.79
2023-03-15T10:07:41.326Z,64.13
2023-03-15T10:08:46.947Z,64.47
2023-03-15T10:09:50.040Z,64.64
2023-03-15T10:11:08.811Z,64.18
2023-03-15T10:12:17.176Z,63.66
2023-03-15T10:13:50.970Z,64.44
2023-03-15T10:15:31.615Z,63.84
2023-03-15T10:16:48.970Z,63.20
2023-03-15T10:18:05.637Z,62.11
2023-03-15T10:19:22.998Z,63.28
2023-03-15T10:20:34.237Z,63.16
2023-03-15T10:21:44.182Z,61.21
2023-03-15T10:22:51.276Z,62.36
2023-03-15T10:23:55.031Z,61.67
2023-03-15T10:25:26.402Z,60.96
2023-03-15T10:26:36.390Z,61.80
2023-03-15T10:27:52.000Z,60.46
2023-03-15T10:28:55.387Z,61.79
2023-03-15T10:30:00.089Z,60.14
2023-03-15T10:31:22.368Z,61.05
2023-03-15T10:32:34.438Z,60.44
2023-03-15T10:33:39.016Z,59.87
2023-03-15T10:34:41.908Z,59.96
2023-03-15T10:35:45.203Z,59.01
2023-03-15T10:36:50.235Z,55.65
2023-03-15T10:37:56.135Z,57.19
2023-03-15T10:38:58.934Z,57.60
2023-03-15T10:40:01.798Z,56.80
2023-03-15T10:41:06.348Z,56.46
2023-03-15T10:42:25.061Z,57.54
2023-03-15T10:43:32.041Z,56.86
2023-03-15T10:44:37.940Z,57.66
2023-03-15T10:45:40.819Z,58.02
2023-03-15T10:47:04.645Z,58.10
2023-03-15T10:48:13.843Z,56.78
2023-03-15T10:49:16.885Z,56.78
2023-03-15T10:50:37.002Z,56.13
2023-03-15T10:51:45.892Z,56.31
2023-03-15T10:52:51.274Z,55.96
2023-03-15T10:53:57.459Z,56.49
2023-03-15T10:55:04.973Z,56.04
2023-03-15T10:56:21.221Z,56.34
2023-03-15T10:57:28.720Z,56.43
2023-03-15T10:59:01.679Z,55.54
2023-03-15T11:00:37.710Z,55.19
2023-03-15T11:01:40.779Z,55.77
2023-03-15T11:03:03.240Z,55.96
2023-03-15T11:04:09.146Z,54.08
2023-03-15T11:05:14.639Z,54.31
2023-03-15T11:06:26.151Z,55.40
2023-03-15T11:07:29.276Z,55.90
2023-03-15T11:08:41.238Z,55.30
2023-03-15T11:09:58.874Z,55.81
2023-03-15T11:11:01.960Z,55.10
2023-03-15T11:12:07.729Z,54.25
2023-03-15T11:13:20.982Z,55.76
2023-03-15T11:14:25.326Z,55.29
2023-03-15T11:15:29.262Z,55.91
2023-03-15T11:16:37.742Z,56.34
2023-03-15T11:17:46.860Z,56.01
2023-03-15T11:19:01.586Z,55.94
2023-03-15T11:20:19.989Z,56.44
2023-03-15T11:21:33.658Z,56.22
2023-03-15T11:22:36.521Z,55.30
2023-03-15T11:23:46.052Z,55.57
2023-03-15T11:24:49.452Z,54.40
2023-03-15T11:25:54.080Z,55.66
2023-03-15T11:27:03.791Z,55.57
2023-03-15T11:28:11.058Z,54.93
2023-03-15T11:29:24.861Z,54.37
2023-03-15T11:30:31.408Z,55.45
2023-03-15T11:31:35.847Z,55.07
2023-03-15T11:32:39.821Z,54.97
2023-03-15T11:33:53.751Z,53.37
2023-03-15T11:35:33.527Z,52.56
2023-03-15T11:36:41.431Z,52.71
2023-03-15T11:38:03.165Z,51.56
2023-03-15T11:39:18.184Z,51.73
2023-03-15T11:40:23.173Z,51.79
2023-03-15T11:41:51.586Z,50.96
2023-03-15T11:42:59.916Z,49.72
2023-03-15T11:44:28.782Z,51.09
2023-03-15T11:45:58.544Z,51.97
2023-03-15T11:47:53.036Z,51.82
2023-03-15T11:49:19.426Z,52.38
2023-03-15T11:50:22.537Z,51.10
2023-03-15T11:51:25.492Z,51.24
2023-03-15T11:52:29.768Z,50.13
2023-03-15T11:53:38.642Z,50.06
2023-03-15T11:54:41.546Z,50.88
2023-03-15T11:55:50.331Z,49.55
2023-03-15T11:57:01.507Z,50.22
2023-03-15T11:58:28.167Z,50.52
2023-03-15T11:59:33.792Z,49.11
2023-03-15T12:00:37.880Z,47.24
2023-03-15T12:01:54.953Z,46.57
2023-03-15T12:03:19.503Z,48.55
2023-03-15T12:04:25.763Z,47.54
2023-03-15T12:05:45.721Z,47.79
2023-03-15T12:06:48.784Z,48.20
2023-03-15T12:07:59.429Z,45.81
2023-03-15T12:09:24.819Z,46.92
2023-03-15T12:10:33.182Z,45.92
2023-03-15T12:11:38.714Z,44.73
2023-03-15T12:12:46.354Z,45.27
2023-03-15T12:14:25.509Z,45.02
2023-03-15T12:15:28.352Z,46.94
2023-03-15T12:16:39.239Z,45.85
2023-03-15T12:17:49.960Z,46.94
2023-03-15T12:18:54.282Z,45.82
2023-03-15T12:20:21.406Z,45.89
2023-03-15T12:21:38.882Z,45.53
2023-03-15T12:22:48.417Z,44.61
2023-03-15T12:24:03.919Z,44.07
2023-03-15T12:25:15.438Z,43.67
2023-03-15T12:26:27.034Z,43.06
2023-03-15T12:27:30.733Z,43.50
2023-03-15T12:29:08.997Z,43.40
2023-03-15T12:30:23.561Z,42.25
2023-03-15T12:31:42.272Z,42.81
2023-03-15T12:32:50.497Z,44.53
2023-03-15T12:33:58.564Z,43.55
2023-03-15T12:35:16.156Z,44.86
2023-03-15T12:36:32.196Z,43.82
2023-03-15T12:37:37.963Z,44.11
2023-03-15T12:38:41.940Z,43.42
2023-03-15T12:39:48.257Z,41.84
2023-03-15T12:40:52.819Z,41.52
2023-03-15T12:41:55.696Z,42.67
2023-03-15T12:43:03.243Z,41.22
2023-03-15T12:44:18.683Z,41.57
2023-03-15T12:45:27.592Z,40.63
2023-03-15T12:46:36.854Z,41.30
2023-03-15T12:47:52.163Z,39.21
2023-03-15T12:49:12.164Z,39.83
2023-03-15T12:50:45.878Z,39.64
2023-03-15T12:51:59.598Z,39.37
2023-03-15T12:53:13.194Z,40.32
2023-03-15T12:54:16.425Z,38.50
2023-03-15T12:55:19.675Z,37.37
2023-03-15T12:56:32.783Z,36.38
2023-03-15T12:57:56.450Z,37.27
2023-03-15T12:59:05.778Z,38.04
2023-03-15T13:00:18.739Z,38.10
2023-03-15T13:01:25.718Z,38.82
2023-03-15T13:02:42.140Z,38.98
2023-03-15T13:03:46.347Z,38.47
2023-03-15T13:04:49.718Z,38.98
2023-03-15T13:06:06.127Z,39.26
2023-03-15T13:07:48.957Z,38.28
2023-03-15T13:09:00.996Z,36.45
2023-03-15T13:10:27.061Z,36.75
2023-03-15T13:11:43.240Z,37.08
2023-03-15T13:13:00.726Z,37.81
2023-03-15T13:14:33.530Z,37.58
2023-03-15T13:15:55.800Z,37.71
2023-03-15T13:17:17.371Z,36.78
2023-03-15T13:18:24.705Z,34.81
2023-03-15T13:19:32.966Z,34.35
2023-03-15T13:21:21.191Z,35.24
2023-03-15T13:22:54.955Z,35.19
2023-03-15T13:23:59.865Z,36.31
2023-03-15T13:25:16.162Z,36.06
2023-03-15T13:26:48.915Z,35.77
2023-03-15T13:27:58.914Z,36.66
2023-03-15T13:29:22.500Z,36.82
2023-03-15T13:30:28.129Z,36.21
2023-03-15T13:31:31.750Z,35.77
2023-03-15T13:32:35.388Z,35.75
2023-03-15T13:33:38.645Z,36.26
2023-03-15T13:34:44.639Z,37.01
2023-03-15T13:35:55.314Z,37.43
2023-03-15T13:37:00.316Z,37.58
2023-03-15T13:38:22.331Z,37.76
2023-03-15T13:39:28.193Z,37.89
2023-03-15T13:40:31.327Z,38.44
2023-03-15T13:41:34.252Z,38.82
2023-03-15T13:42:41.194Z,38.30
2023-03-15T13:43:44.942Z,38.35
2023-03-15T13:45:03.455Z,38.97
2023-03-15T13:46:06.430Z,38.59
2023-03-15T13:47:09.618Z,38.01
2023-03-15T13:48:13.389Z,38.40
2023-03-15T13:49:17.393Z,38.94
2023-03-15T13:50:21.558Z,39.01
2023-03-15T13:51:31.855Z,39.05
2023-03-15T13:52:35.139Z,39.14
2023-03-15T13:53:49.781Z,39.65
2023-03-15T13:54:54.065Z,38.97
2023-03-15T13:55:57.282Z,39.01
2023-03-15T13:57:13.411Z,39.69
2023-03-15T13:58:16.554Z,39.72
2023-03-15T13:59:19.529Z,39.51
2023-03-15T14:00:23.469Z,38.68
2023-03-15T14:01:27.286Z,38.88
2023-03-15T14:02:55.168Z,38.54
2023-03-15T14:04:02.295Z,37.80
2023-03-15T14:05:09.531Z,38.96
2023-03-15T14:06:22.788Z,37.07
2023-03-15T14:07:28.013Z,37.76
2023-03-15T14:08:35.367Z,37.53
2023-03-15T14:09:39.971Z,37.24
2023-03-15T14:10:42.961Z,35.70
2023-03-15T14:11:45.880Z,36.72
2023-03-15T14:12:51.000Z,36.39
2023-03-15T14:13:59.592Z,37.07
2023-03-15T14:15:03.290Z,36.10
2023-03-15T14:16:14.192Z,37.29
2023-03-15T14:17:37.416Z,36.86
2023-03-15T14:18:43.071Z,36.32
2023-03-15T14:19:59.534Z,37.31
2023-03-15T14:21:08.484Z,36.91
2023-03-15T14:22:20.902Z,37.22
2023-03-15T14:23:27.135Z,37.33
2023-03-15T14:24:33.764Z,35.97
2023-03-15T14:25:37.224Z,36.89
2023-03-15T14:26:40.782Z,36.40
2023-03-15T14:27:44.152Z,36.65
2023-03-15T14:28:55.064Z,37.20
2023-03-15T14:30:01.568Z,36.93
2023-03-15T14:31:04.683Z,37.00
2023-03-15T14:32:24.421Z,36.85
2023-03-15T14:33:33.083Z,37.34
2023-03-15T14:34:44.616Z,36.98
2023-03-15T14:35:47.557Z,37.43
2023-03-15T14:36:54.213Z,38.00
2023-03-15T14:38:21.271Z,38.34
2023-03-15T14:39:28.848Z,37.42
2023-03-15T14:40:35.803Z,37.52
2023-03-15T14:41:38.747Z,36.89
2023-03-15T14:42:42.788Z,37.05
2023-03-15T14:43:46.613Z,37.39
2023-03-15T14:44:49.918Z,37.38
2023-03-15T14:45:54.159Z,36.89
2023-03-15T14:46:57.864Z,36.40
2023-03-15T14:48:08.565Z,36.82
2023-03-15T14:49:26.416Z,37.12